sensor_id;sensor_type;location;lat;lon;timestamp;temperature;humidity
11387;DHT22;5748;53.102;8.456;2022-10-16T00:01:52;17.20;65.70
11387;DHT22;5748;53.102;8.456;2022-10-16T00:04:22;17.20;65.70
11387;DHT22;5748;53.102;8.456;2022-10-16T00:07:07;17.10;65.60
11387;DHT22;5748;53.102;8.456;2022-10-16T00:09:35;17.00;65.70
11387;DHT22;5748;53.102;8.456;2022-10-16T00:12:13;17.10;65.60
11387;DHT22;5748;53.102;8.456;2022-10-16T00:14:47;17.00;65.70
11387;DHT22;5748;53.102;8.456;2022-10-16T00:17:44;17.00;65.80
11387;DHT22;5748;53.102;8.456;2022-10-16T00:20:12;16.90;65.80
11387;DHT22;5748;53.102;8.456;2022-10-16T00:22:41;16.90;65.50
11387;DHT22;5748;53.102;8.456;2022-10-16T00:25:10;16.90;65.60
11387;DHT22;5748;53.102;8.456;2022-10-16T00:27:38;16.90;65.60
11387;DHT22;5748;53.102;8.456;2022-10-16T00:30:14;16.80;65.50
11387;DHT22;5748;53.102;8.456;2022-10-16T00:32:42;16.80;65.70
11387;DHT22;5748;53.102;8.456;2022-10-16T00:35:09;16.80;65.60
11387;DHT22;5748;53.102;8.456;2022-10-16T00:37:37;16.70;65.50
11387;DHT22;5748;53.102;8.456;2022-10-16T00:40:06;16.70;65.60
11387;DHT22;5748;53.102;8.456;2022-10-16T00:42:42;16.70;65.70
11387;DHT22;5748;53.102;8.456;2022-10-16T00:45:21;16.60;65.60
11387;DHT22;5748;53.102;8.456;2022-10-16T00:47:49;16.60;65.80
11387;DHT22;5748;53.102;8.456;2022-10-16T00:50:24;16.60;65.60
11387;DHT22;5748;53.102;8.456;2022-10-16T00:52:59;16.60;65.70
11387;DHT22;5748;53.102;8.456;2022-10-16T00:55:27;16.60;65.70
11387;DHT22;5748;53.102;8.456;2022-10-16T00:57:57;16.50;65.50
11387;DHT22;5748;53.102;8.456;2022-10-16T01:00:33;16.50;65.50
11387;DHT22;5748;53.102;8.456;2022-10-16T01:03:02;16.40;65.50
11387;DHT22;5748;53.102;8.456;2022-10-16T01:05:35;16.50;65.50
11387;DHT22;5748;53.102;8.456;2022-10-16T01:08:12;16.40;65.60
11387;DHT22;5748;53.102;8.456;2022-10-16T01:10:43;16.40;65.50
11387;DHT22;5748;53.102;8.456;2022-10-16T01:13:25;16.30;65.40
11387;DHT22;5748;53.102;8.456;2022-10-16T01:16:13;16.30;65.60
11387;DHT22;5748;53.102;8.456;2022-10-16T01:19:04;16.20;65.60
11387;DHT22;5748;53.102;8.456;2022-10-16T01:21:46;16.20;65.50
11387;DHT22;5748;53.102;8.456;2022-10-16T01:24:26;16.20;65.50
11387;DHT22;5748;53.102;8.456;2022-10-16T01:27:14;16.20;65.70
11387;DHT22;5748;53.102;8.456;2022-10-16T01:30:03;16.10;65.80
11387;DHT22;5748;53.102;8.456;2022-10-16T01:32:36;16.00;65.80
11387;DHT22;5748;53.102;8.456;2022-10-16T01:35:09;16.00;65.50
11387;DHT22;5748;53.102;8.456;2022-10-16T01:37:48;15.90;65.50
11387;DHT22;5748;53.102;8.456;2022-10-16T01:40:20;16.00;65.90
11387;DHT22;5748;53.102;8.456;2022-10-16T01:42:53;15.90;65.70
11387;DHT22;5748;53.102;8.456;2022-10-16T01:45:23;15.90;65.80
11387;DHT22;5748;53.102;8.456;2022-10-16T01:47:51;15.90;66.10
11387;DHT22;5748;53.102;8.456;2022-10-16T01:50:24;16.00;66.00
11387;DHT22;5748;53.102;8.456;2022-10-16T01:52:54;15.80;66.00
11387;DHT22;5748;53.102;8.456;2022-10-16T01:55:25;15.90;66.10
11387;DHT22;5748;53.102;8.456;2022-10-16T01:58:12;15.80;66.10
11387;DHT22;5748;53.102;8.456;2022-10-16T02:00:43;15.80;66.50
11387;DHT22;5748;53.102;8.456;2022-10-16T02:03:13;15.90;66.50
11387;DHT22;5748;53.102;8.456;2022-10-16T02:05:46;15.80;66.40
11387;DHT22;5748;53.102;8.456;2022-10-16T02:08:14;15.80;66.40
11387;DHT22;5748;53.102;8.456;2022-10-16T02:10:41;15.80;66.20
11387;DHT22;5748;53.102;8.456;2022-10-16T02:13:11;16.20;66.70
11387;DHT22;5748;53.102;8.456;2022-10-16T02:15:40;15.80;66.50
11387;DHT22;5748;53.102;8.456;2022-10-16T02:18:08;15.90;66.50
11387;DHT22;5748;53.102;8.456;2022-10-16T02:20:40;15.90;66.60
11387;DHT22;5748;53.102;8.456;2022-10-16T02:23:13;15.90;66.70
11387;DHT22;5748;53.102;8.456;2022-10-16T02:25:46;15.90;66.60
11387;DHT22;5748;53.102;8.456;2022-10-16T02:28:19;15.90;66.60
11387;DHT22;5748;53.102;8.456;2022-10-16T02:30:52;15.90;66.80
11387;DHT22;5748;53.102;8.456;2022-10-16T02:33:24;16.00;66.70
11387;DHT22;5748;53.102;8.456;2022-10-16T02:36:00;16.00;66.70
11387;DHT22;5748;53.102;8.456;2022-10-16T02:38:28;16.00;66.80
11387;DHT22;5748;53.102;8.456;2022-10-16T02:40:56;16.10;67.40
11387;DHT22;5748;53.102;8.456;2022-10-16T02:43:29;16.10;66.70
11387;DHT22;5748;53.102;8.456;2022-10-16T02:45:56;16.10;66.80
11387;DHT22;5748;53.102;8.456;2022-10-16T02:48:25;16.20;66.80
11387;DHT22;5748;53.102;8.456;2022-10-16T02:50:53;16.10;67.40
11387;DHT22;5748;53.102;8.456;2022-10-16T02:53:20;16.20;66.70
11387;DHT22;5748;53.102;8.456;2022-10-16T02:55:47;16.20;66.70
11387;DHT22;5748;53.102;8.456;2022-10-16T02:58:14;16.20;66.70
11387;DHT22;5748;53.102;8.456;2022-10-16T03:00:42;16.30;66.70
11387;DHT22;5748;53.102;8.456;2022-10-16T03:03:09;16.30;66.70
11387;DHT22;5748;53.102;8.456;2022-10-16T03:05:36;16.40;66.70
11387;DHT22;5748;53.102;8.456;2022-10-16T03:08:04;16.30;66.50
11387;DHT22;5748;53.102;8.456;2022-10-16T03:10:36;16.40;66.70
11387;DHT22;5748;53.102;8.456;2022-10-16T03:13:03;16.40;66.80
11387;DHT22;5748;53.102;8.456;2022-10-16T03:15:36;16.50;66.80
11387;DHT22;5748;53.102;8.456;2022-10-16T03:18:05;16.40;66.70
11387;DHT22;5748;53.102;8.456;2022-10-16T03:20:32;16.40;66.60
11387;DHT22;5748;53.102;8.456;2022-10-16T03:22:59;16.50;66.70
11387;DHT22;5748;53.102;8.456;2022-10-16T03:25:28;16.40;66.60
11387;DHT22;5748;53.102;8.456;2022-10-16T03:27:55;16.40;66.60
11387;DHT22;5748;53.102;8.456;2022-10-16T03:30:21;16.50;66.60
11387;DHT22;5748;53.102;8.456;2022-10-16T03:32:49;16.50;66.60
11387;DHT22;5748;53.102;8.456;2022-10-16T03:35:20;16.40;66.40
11387;DHT22;5748;53.102;8.456;2022-10-16T03:37:50;16.40;66.40
11387;DHT22;5748;53.102;8.456;2022-10-16T03:40:26;16.40;66.40
11387;DHT22;5748;53.102;8.456;2022-10-16T03:42:53;16.40;66.40
11387;DHT22;5748;53.102;8.456;2022-10-16T03:45:29;16.40;66.20
11387;DHT22;5748;53.102;8.456;2022-10-16T03:47:56;16.40;67.00
11387;DHT22;5748;53.102;8.456;2022-10-16T03:50:25;16.40;66.20
11387;DHT22;5748;53.102;8.456;2022-10-16T03:53:11;16.40;66.20
11387;DHT22;5748;53.102;8.456;2022-10-16T03:55:46;16.30;66.50
11387;DHT22;5748;53.102;8.456;2022-10-16T03:58:31;16.20;66.30
11387;DHT22;5748;53.102;8.456;2022-10-16T04:00:58;16.20;66.30
11387;DHT22;5748;53.102;8.456;2022-10-16T04:03:25;16.30;66.30
11387;DHT22;5748;53.102;8.456;2022-10-16T04:05:54;16.20;66.40
11387;DHT22;5748;53.102;8.456;2022-10-16T04:08:22;16.10;66.40
11387;DHT22;5748;53.102;8.456;2022-10-16T04:10:51;16.20;66.50
11387;DHT22;5748;53.102;8.456;2022-10-16T04:13:40;16.10;66.50
11387;DHT22;5748;53.102;8.456;2022-10-16T04:16:15;16.10;66.80
11387;DHT22;5748;53.102;8.456;2022-10-16T04:18:49;16.10;66.90
11387;DHT22;5748;53.102;8.456;2022-10-16T04:21:18;16.10;67.00
11387;DHT22;5748;53.102;8.456;2022-10-16T04:23:45;16.10;66.90
11387;DHT22;5748;53.102;8.456;2022-10-16T04:26:13;16.10;67.00
11387;DHT22;5748;53.102;8.456;2022-10-16T04:28:40;16.10;67.20
11387;DHT22;5748;53.102;8.456;2022-10-16T04:31:07;16.50;67.60
11387;DHT22;5748;53.102;8.456;2022-10-16T04:33:34;16.20;67.40
11387;DHT22;5748;53.102;8.456;2022-10-16T04:36:02;16.20;67.40
11387;DHT22;5748;53.102;8.456;2022-10-16T04:38:31;16.20;67.60
11387;DHT22;5748;53.102;8.456;2022-10-16T04:41:00;16.20;68.30
11387;DHT22;5748;53.102;8.456;2022-10-16T04:43:38;16.20;67.60
11387;DHT22;5748;53.102;8.456;2022-10-16T04:46:05;16.40;67.90
11387;DHT22;5748;53.102;8.456;2022-10-16T04:48:32;16.30;67.60
11387;DHT22;5748;53.102;8.456;2022-10-16T04:51:00;16.40;67.60
11387;DHT22;5748;53.102;8.456;2022-10-16T04:53:38;16.40;67.70
11387;DHT22;5748;53.102;8.456;2022-10-16T04:56:05;16.50;67.80
11387;DHT22;5748;53.102;8.456;2022-10-16T04:58:42;16.50;67.50
11387;DHT22;5748;53.102;8.456;2022-10-16T05:01:09;16.50;67.70
11387;DHT22;5748;53.102;8.456;2022-10-16T05:03:42;16.60;67.50
11387;DHT22;5748;53.102;8.456;2022-10-16T05:06:10;16.60;67.70
11387;DHT22;5748;53.102;8.456;2022-10-16T05:08:39;16.60;67.60
11387;DHT22;5748;53.102;8.456;2022-10-16T05:11:06;16.60;67.70
11387;DHT22;5748;53.102;8.456;2022-10-16T05:13:33;16.60;67.60
11387;DHT22;5748;53.102;8.456;2022-10-16T05:16:01;16.60;67.50
11387;DHT22;5748;53.102;8.456;2022-10-16T05:18:28;16.70;67.70
11387;DHT22;5748;53.102;8.456;2022-10-16T05:20:55;16.70;67.60
11387;DHT22;5748;53.102;8.456;2022-10-16T05:23:22;16.60;67.50
11387;DHT22;5748;53.102;8.456;2022-10-16T05:25:54;16.70;67.60
11387;DHT22;5748;53.102;8.456;2022-10-16T05:28:24;16.70;67.90
11387;DHT22;5748;53.102;8.456;2022-10-16T05:30:51;16.70;68.50
11387;DHT22;5748;53.102;8.456;2022-10-16T05:33:19;16.60;67.50
11387;DHT22;5748;53.102;8.456;2022-10-16T05:36:01;16.70;67.70
11387;DHT22;5748;53.102;8.456;2022-10-16T05:38:29;16.80;68.00
11387;DHT22;5748;53.102;8.456;2022-10-16T05:41:10;16.70;67.60
11387;DHT22;5748;53.102;8.456;2022-10-16T05:43:37;16.70;67.90
11387;DHT22;5748;53.102;8.456;2022-10-16T05:46:05;16.70;67.40
11387;DHT22;5748;53.102;8.456;2022-10-16T05:48:38;16.70;67.50
11387;DHT22;5748;53.102;8.456;2022-10-16T05:51:06;16.70;67.60
11387;DHT22;5748;53.102;8.456;2022-10-16T05:53:36;16.60;67.50
11387;DHT22;5748;53.102;8.456;2022-10-16T05:56:12;16.70;67.60
11387;DHT22;5748;53.102;8.456;2022-10-16T05:58:40;16.70;67.90
11387;DHT22;5748;53.102;8.456;2022-10-16T06:01:11;16.70;67.70
11387;DHT22;5748;53.102;8.456;2022-10-16T06:03:39;16.60;67.70
11387;DHT22;5748;53.102;8.456;2022-10-16T06:06:11;16.60;67.60
11387;DHT22;5748;53.102;8.456;2022-10-16T06:08:39;16.60;67.90
11387;DHT22;5748;53.102;8.456;2022-10-16T06:11:08;16.70;67.90
11387;DHT22;5748;53.102;8.456;2022-10-16T06:13:38;16.70;68.50
11387;DHT22;5748;53.102;8.456;2022-10-16T06:16:08;16.70;67.70
11387;DHT22;5748;53.102;8.456;2022-10-16T06:18:35;16.70;67.80
11387;DHT22;5748;53.102;8.456;2022-10-16T06:21:07;16.80;67.70
11387;DHT22;5748;53.102;8.456;2022-10-16T06:23:36;16.60;67.60
11387;DHT22;5748;53.102;8.456;2022-10-16T06:26:07;16.60;67.50
11387;DHT22;5748;53.102;8.456;2022-10-16T06:28:35;16.60;67.70
11387;DHT22;5748;53.102;8.456;2022-10-16T06:31:05;16.60;67.50
11387;DHT22;5748;53.102;8.456;2022-10-16T06:33:36;16.60;67.60
11387;DHT22;5748;53.102;8.456;2022-10-16T06:36:06;16.60;67.70
11387;DHT22;5748;53.102;8.456;2022-10-16T06:38:34;16.60;67.70
11387;DHT22;5748;53.102;8.456;2022-10-16T06:41:02;16.50;67.60
11387;DHT22;5748;53.102;8.456;2022-10-16T06:43:30;16.50;67.70
11387;DHT22;5748;53.102;8.456;2022-10-16T06:45:59;16.50;67.70
11387;DHT22;5748;53.102;8.456;2022-10-16T06:48:28;16.50;68.60
11387;DHT22;5748;53.102;8.456;2022-10-16T06:50:58;16.50;68.00
11387;DHT22;5748;53.102;8.456;2022-10-16T06:53:26;16.50;68.00
11387;DHT22;5748;53.102;8.456;2022-10-16T06:55:54;16.50;68.00
11387;DHT22;5748;53.102;8.456;2022-10-16T06:58:22;16.50;68.10
11387;DHT22;5748;53.102;8.456;2022-10-16T07:00:55;16.50;68.10
11387;DHT22;5748;53.102;8.456;2022-10-16T07:03:24;16.50;68.20
11387;DHT22;5748;53.102;8.456;2022-10-16T07:05:52;16.40;68.00
11387;DHT22;5748;53.102;8.456;2022-10-16T07:08:19;16.50;68.10
11387;DHT22;5748;53.102;8.456;2022-10-16T07:10:48;16.60;68.20
11387;DHT22;5748;53.102;8.456;2022-10-16T07:13:15;16.70;68.50
11387;DHT22;5748;53.102;8.456;2022-10-16T07:15:42;16.50;69.00
11387;DHT22;5748;53.102;8.456;2022-10-16T07:18:09;16.60;68.40
11387;DHT22;5748;53.102;8.456;2022-10-16T07:20:36;16.60;68.30
11387;DHT22;5748;53.102;8.456;2022-10-16T07:23:05;16.70;68.60
11387;DHT22;5748;53.102;8.456;2022-10-16T07:25:32;16.60;68.40
11387;DHT22;5748;53.102;8.456;2022-10-16T07:27:59;16.60;68.50
11387;DHT22;5748;53.102;8.456;2022-10-16T07:30:26;16.60;68.50
11387;DHT22;5748;53.102;8.456;2022-10-16T07:32:53;16.60;68.40
11387;DHT22;5748;53.102;8.456;2022-10-16T07:35:19;16.70;68.50
11387;DHT22;5748;53.102;8.456;2022-10-16T07:37:46;16.70;68.60
11387;DHT22;5748;53.102;8.456;2022-10-16T07:40:15;16.70;68.60
11387;DHT22;5748;53.102;8.456;2022-10-16T07:42:42;16.70;68.60
11387;DHT22;5748;53.102;8.456;2022-10-16T07:45:09;16.80;68.80
11387;DHT22;5748;53.102;8.456;2022-10-16T07:47:36;16.80;69.00
11387;DHT22;5748;53.102;8.456;2022-10-16T07:50:04;16.90;69.30
11387;DHT22;5748;53.102;8.456;2022-10-16T07:52:31;16.90;69.50
11387;DHT22;5748;53.102;8.456;2022-10-16T07:54:58;17.00;69.50
11387;DHT22;5748;53.102;8.456;2022-10-16T07:57:26;17.00;69.40
11387;DHT22;5748;53.102;8.456;2022-10-16T07:59:53;17.10;69.60
11387;DHT22;5748;53.102;8.456;2022-10-16T08:02:20;17.20;69.70
11387;DHT22;5748;53.102;8.456;2022-10-16T08:04:53;17.20;69.70
11387;DHT22;5748;53.102;8.456;2022-10-16T08:07:20;17.40;70.60
11387;DHT22;5748;53.102;8.456;2022-10-16T08:09:49;17.50;70.30
11387;DHT22;5748;53.102;8.456;2022-10-16T08:12:17;17.70;70.30
11387;DHT22;5748;53.102;8.456;2022-10-16T08:14:45;17.80;70.40
11387;DHT22;5748;53.102;8.456;2022-10-16T08:17:14;18.00;70.60
11387;DHT22;5748;53.102;8.456;2022-10-16T08:19:44;18.10;70.70
11387;DHT22;5748;53.102;8.456;2022-10-16T08:22:11;18.30;70.80
11387;DHT22;5748;53.102;8.456;2022-10-16T08:24:39;18.60;71.10
11387;DHT22;5748;53.102;8.456;2022-10-16T08:27:07;18.80;71.00
11387;DHT22;5748;53.102;8.456;2022-10-16T08:29:35;19.00;71.30
11387;DHT22;5748;53.102;8.456;2022-10-16T08:32:05;19.30;71.80
11387;DHT22;5748;53.102;8.456;2022-10-16T08:34:32;19.60;72.10
11387;DHT22;5748;53.102;8.456;2022-10-16T08:37:00;19.90;72.60
11387;DHT22;5748;53.102;8.456;2022-10-16T08:39:29;20.20;73.00
11387;DHT22;5748;53.102;8.456;2022-10-16T08:42:27;20.60;73.40
11387;DHT22;5748;53.102;8.456;2022-10-16T08:48:04;21.20;71.50
11387;DHT22;5748;53.102;8.456;2022-10-16T08:50:37;21.50;70.60
11387;DHT22;5748;53.102;8.456;2022-10-16T08:53:09;21.60;71.30
11387;DHT22;5748;53.102;8.456;2022-10-16T08:55:42;21.80;71.30
11387;DHT22;5748;53.102;8.456;2022-10-16T08:58:18;22.00;71.50
11387;DHT22;5748;53.102;8.456;2022-10-16T09:00:48;22.20;70.80
11387;DHT22;5748;53.102;8.456;2022-10-16T09:03:33;22.40;71.10
11387;DHT22;5748;53.102;8.456;2022-10-16T09:06:40;22.60;70.50
11387;DHT22;5748;53.102;8.456;2022-10-16T09:09:35;22.90;70.60
11387;DHT22;5748;53.102;8.456;2022-10-16T09:12:16;23.00;69.30
11387;DHT22;5748;53.102;8.456;2022-10-16T09:14:56;23.10;68.10
11387;DHT22;5748;53.102;8.456;2022-10-16T09:17:36;23.10;66.50
11387;DHT22;5748;53.102;8.456;2022-10-16T09:20:30;23.00;65.70
11387;DHT22;5748;53.102;8.456;2022-10-16T09:23:25;22.90;64.30
11387;DHT22;5748;53.102;8.456;2022-10-16T09:25:53;22.80;64.20
11387;DHT22;5748;53.102;8.456;2022-10-16T09:28:21;22.70;66.00
11387;DHT22;5748;53.102;8.456;2022-10-16T09:30:49;22.60;65.70
11387;DHT22;5748;53.102;8.456;2022-10-16T09:33:19;22.50;66.10
11387;DHT22;5748;53.102;8.456;2022-10-16T09:35:52;22.50;65.70
11387;DHT22;5748;53.102;8.456;2022-10-16T09:38:27;22.40;65.00
11387;DHT22;5748;53.102;8.456;2022-10-16T09:40:58;22.30;64.80
11387;DHT22;5748;53.102;8.456;2022-10-16T09:43:34;22.30;65.50
11387;DHT22;5748;53.102;8.456;2022-10-16T09:46:04;22.20;66.00
11387;DHT22;5748;53.102;8.456;2022-10-16T09:48:37;22.20;66.60
11387;DHT22;5748;53.102;8.456;2022-10-16T09:51:18;22.30;67.10
11387;DHT22;5748;53.102;8.456;2022-10-16T09:53:47;22.40;66.60
11387;DHT22;5748;53.102;8.456;2022-10-16T09:56:22;22.60;67.50
11387;DHT22;5748;53.102;8.456;2022-10-16T09:58:51;22.70;67.10
11387;DHT22;5748;53.102;8.456;2022-10-16T10:01:19;22.90;68.00
11387;DHT22;5748;53.102;8.456;2022-10-16T10:03:48;23.00;67.40
11387;DHT22;5748;53.102;8.456;2022-10-16T10:06:23;23.20;67.00
11387;DHT22;5748;53.102;8.456;2022-10-16T10:09:03;23.40;66.60
11387;DHT22;5748;53.102;8.456;2022-10-16T10:11:44;23.50;65.50
11387;DHT22;5748;53.102;8.456;2022-10-16T10:14:27;23.60;64.40
11387;DHT22;5748;53.102;8.456;2022-10-16T10:17:19;23.70;63.70
11387;DHT22;5748;53.102;8.456;2022-10-16T10:19:50;23.70;63.20
11387;DHT22;5748;53.102;8.456;2022-10-16T10:22:26;23.70;63.80
11387;DHT22;5748;53.102;8.456;2022-10-16T10:25:10;23.80;64.00
11387;DHT22;5748;53.102;8.456;2022-10-16T10:27:52;23.80;63.80
11387;DHT22;5748;53.102;8.456;2022-10-16T10:30:29;23.80;63.40
11387;DHT22;5748;53.102;8.456;2022-10-16T10:33:12;23.90;63.10
11387;DHT22;5748;53.102;8.456;2022-10-16T10:35:47;23.90;63.10
11387;DHT22;5748;53.102;8.456;2022-10-16T10:38:30;24.00;62.00
11387;DHT22;5748;53.102;8.456;2022-10-16T10:41:22;24.00;62.20
11387;DHT22;5748;53.102;8.456;2022-10-16T10:44:06;24.00;62.70
11387;DHT22;5748;53.102;8.456;2022-10-16T10:46:42;24.20;63.60
11387;DHT22;5748;53.102;8.456;2022-10-16T10:49:30;24.30;63.90
11387;DHT22;5748;53.102;8.456;2022-10-16T10:52:13;24.50;62.80
11387;DHT22;5748;53.102;8.456;2022-10-16T10:55:01;24.70;63.10
11387;DHT22;5748;53.102;8.456;2022-10-16T10:57:37;24.90;62.50
11387;DHT22;5748;53.102;8.456;2022-10-16T11:00:17;25.10;62.00
11387;DHT22;5748;53.102;8.456;2022-10-16T11:02:50;25.40;62.00
11387;DHT22;5748;53.102;8.456;2022-10-16T11:05:33;25.60;63.30
11387;DHT22;5748;53.102;8.456;2022-10-16T11:08:11;26.20;63.10
11387;DHT22;5748;53.102;8.456;2022-10-16T11:10:47;26.10;63.00
11387;DHT22;5748;53.102;8.456;2022-10-16T11:13:27;26.40;62.70
11387;DHT22;5748;53.102;8.456;2022-10-16T11:15:59;26.70;62.80
11387;DHT22;5748;53.102;8.456;2022-10-16T11:18:33;27.00;63.50
11387;DHT22;5748;53.102;8.456;2022-10-16T11:21:10;27.20;61.90
11387;DHT22;5748;53.102;8.456;2022-10-16T11:23:44;27.50;62.30
11387;DHT22;5748;53.102;8.456;2022-10-16T11:26:20;27.80;62.10
11387;DHT22;5748;53.102;8.456;2022-10-16T11:28:49;28.00;60.70
11387;DHT22;5748;53.102;8.456;2022-10-16T11:31:24;28.20;60.30
11387;DHT22;5748;53.102;8.456;2022-10-16T11:34:01;28.50;60.00
11387;DHT22;5748;53.102;8.456;2022-10-16T11:36:36;28.70;60.00
11387;DHT22;5748;53.102;8.456;2022-10-16T11:39:13;28.90;59.60
11387;DHT22;5748;53.102;8.456;2022-10-16T11:41:49;29.10;58.60
11387;DHT22;5748;53.102;8.456;2022-10-16T11:44:33;29.30;59.40
11387;DHT22;5748;53.102;8.456;2022-10-16T11:47:12;29.50;58.40
11387;DHT22;5748;53.102;8.456;2022-10-16T11:49:47;29.70;57.30
11387;DHT22;5748;53.102;8.456;2022-10-16T11:52:22;29.80;58.50
11387;DHT22;5748;53.102;8.456;2022-10-16T11:54:55;29.90;57.80
11387;DHT22;5748;53.102;8.456;2022-10-16T11:57:27;30.10;57.60
11387;DHT22;5748;53.102;8.456;2022-10-16T12:00:00;30.20;57.20
11387;DHT22;5748;53.102;8.456;2022-10-16T12:02:35;30.30;56.10
11387;DHT22;5748;53.102;8.456;2022-10-16T12:05:15;30.30;55.20
11387;DHT22;5748;53.102;8.456;2022-10-16T12:07:52;30.40;54.90
11387;DHT22;5748;53.102;8.456;2022-10-16T12:10:28;30.30;55.60
11387;DHT22;5748;53.102;8.456;2022-10-16T12:13:03;30.40;55.10
11387;DHT22;5748;53.102;8.456;2022-10-16T12:15:32;30.20;53.60
11387;DHT22;5748;53.102;8.456;2022-10-16T12:18:00;30.00;52.10
11387;DHT22;5748;53.102;8.456;2022-10-16T12:20:29;29.60;51.30
11387;DHT22;5748;53.102;8.456;2022-10-16T12:23:00;29.20;51.10
11387;DHT22;5748;53.102;8.456;2022-10-16T12:25:30;28.80;51.20
11387;DHT22;5748;53.102;8.456;2022-10-16T12:28:04;28.40;51.60
11387;DHT22;5748;53.102;8.456;2022-10-16T12:30:34;28.00;51.10
11387;DHT22;5748;53.102;8.456;2022-10-16T12:33:04;27.80;52.20
11387;DHT22;5748;53.102;8.456;2022-10-16T12:35:35;27.60;53.40
11387;DHT22;5748;53.102;8.456;2022-10-16T12:38:17;27.60;54.20
11387;DHT22;5748;53.102;8.456;2022-10-16T12:40:46;27.60;54.50
11387;DHT22;5748;53.102;8.456;2022-10-16T12:43:43;27.70;54.60
11387;DHT22;5748;53.102;8.456;2022-10-16T12:46:24;27.70;52.20
11387;DHT22;5748;53.102;8.456;2022-10-16T12:49:06;27.60;51.90
11387;DHT22;5748;53.102;8.456;2022-10-16T12:51:47;27.30;50.80
11387;DHT22;5748;53.102;8.456;2022-10-16T12:54:17;27.10;51.20
11387;DHT22;5748;53.102;8.456;2022-10-16T12:56:53;26.80;51.20
11387;DHT22;5748;53.102;8.456;2022-10-16T12:59:35;26.50;51.30
11387;DHT22;5748;53.102;8.456;2022-10-16T13:02:34;26.20;50.80
11387;DHT22;5748;53.102;8.456;2022-10-16T13:05:21;25.80;50.10
11387;DHT22;5748;53.102;8.456;2022-10-16T13:08:34;25.30;50.70
11387;DHT22;5748;53.102;8.456;2022-10-16T13:11:15;25.10;50.60
11387;DHT22;5748;53.102;8.456;2022-10-16T13:14:04;24.90;51.10
11387;DHT22;5748;53.102;8.456;2022-10-16T13:16:50;24.70;51.30
11387;DHT22;5748;53.102;8.456;2022-10-16T13:19:29;24.60;51.80
11387;DHT22;5748;53.102;8.456;2022-10-16T13:22:04;24.40;51.80
11387;DHT22;5748;53.102;8.456;2022-10-16T13:24:52;24.40;52.00
11387;DHT22;5748;53.102;8.456;2022-10-16T13:27:32;24.20;52.20
11387;DHT22;5748;53.102;8.456;2022-10-16T13:30:12;24.20;52.20
11387;DHT22;5748;53.102;8.456;2022-10-16T13:32:46;24.10;51.80
11387;DHT22;5748;53.102;8.456;2022-10-16T13:35:20;24.10;52.30
11387;DHT22;5748;53.102;8.456;2022-10-16T13:38:04;24.00;51.90
11387;DHT22;5748;53.102;8.456;2022-10-16T13:40:32;24.00;50.90
11387;DHT22;5748;53.102;8.456;2022-10-16T13:43:00;23.90;51.90
11387;DHT22;5748;53.102;8.456;2022-10-16T13:45:27;23.90;52.00
11387;DHT22;5748;53.102;8.456;2022-10-16T13:48:03;23.90;52.00
11387;DHT22;5748;53.102;8.456;2022-10-16T13:50:32;23.80;51.70
11387;DHT22;5748;53.102;8.456;2022-10-16T13:53:06;23.70;51.90
11387;DHT22;5748;53.102;8.456;2022-10-16T13:55:33;22.40;50.90
11387;DHT22;5748;53.102;8.456;2022-10-16T13:58:07;23.60;52.40
11387;DHT22;5748;53.102;8.456;2022-10-16T14:00:37;23.60;52.20
11387;DHT22;5748;53.102;8.456;2022-10-16T14:03:13;23.60;52.60
11387;DHT22;5748;53.102;8.456;2022-10-16T14:05:44;23.60;52.10
11387;DHT22;5748;53.102;8.456;2022-10-16T14:08:14;23.60;52.10
11387;DHT22;5748;53.102;8.456;2022-10-16T14:10:41;23.60;52.50
11387;DHT22;5748;53.102;8.456;2022-10-16T14:13:15;23.60;52.70
11387;DHT22;5748;53.102;8.456;2022-10-16T14:15:47;23.50;52.40
11387;DHT22;5748;53.102;8.456;2022-10-16T14:18:20;23.60;52.40
11387;DHT22;5748;53.102;8.456;2022-10-16T14:20:49;23.50;52.30
11387;DHT22;5748;53.102;8.456;2022-10-16T14:23:22;23.50;52.70
11387;DHT22;5748;53.102;8.456;2022-10-16T14:25:51;23.50;52.30
11387;DHT22;5748;53.102;8.456;2022-10-16T14:28:20;23.50;52.00
11387;DHT22;5748;53.102;8.456;2022-10-16T14:30:54;23.50;52.40
11387;DHT22;5748;53.102;8.456;2022-10-16T14:33:24;23.40;52.00
11387;DHT22;5748;53.102;8.456;2022-10-16T14:36:04;23.40;52.00
11387;DHT22;5748;53.102;8.456;2022-10-16T14:38:33;23.40;51.80
11387;DHT22;5748;53.102;8.456;2022-10-16T14:41:00;23.30;51.70
11387;DHT22;5748;53.102;8.456;2022-10-16T14:43:32;23.20;51.80
11387;DHT22;5748;53.102;8.456;2022-10-16T14:46:01;23.20;51.60
11387;DHT22;5748;53.102;8.456;2022-10-16T14:48:32;23.10;51.60
11387;DHT22;5748;53.102;8.456;2022-10-16T14:50:59;23.10;51.90
11387;DHT22;5748;53.102;8.456;2022-10-16T14:53:26;23.00;51.90
11387;DHT22;5748;53.102;8.456;2022-10-16T14:55:53;23.00;52.00
11387;DHT22;5748;53.102;8.456;2022-10-16T14:58:22;22.90;52.00
11387;DHT22;5748;53.102;8.456;2022-10-16T15:00:50;22.90;51.90
11387;DHT22;5748;53.102;8.456;2022-10-16T15:03:17;22.90;51.90
11387;DHT22;5748;53.102;8.456;2022-10-16T15:05:45;22.80;51.90
11387;DHT22;5748;53.102;8.456;2022-10-16T15:08:12;22.80;51.80
11387;DHT22;5748;53.102;8.456;2022-10-16T15:10:42;22.70;51.90
11387;DHT22;5748;53.102;8.456;2022-10-16T15:13:12;22.70;52.00
11387;DHT22;5748;53.102;8.456;2022-10-16T15:15:42;22.70;51.80
11387;DHT22;5748;53.102;8.456;2022-10-16T15:18:10;22.60;51.60
11387;DHT22;5748;53.102;8.456;2022-10-16T15:20:38;22.60;51.80
11387;DHT22;5748;53.102;8.456;2022-10-16T15:23:13;22.50;51.80
11387;DHT22;5748;53.102;8.456;2022-10-16T15:25:42;22.50;51.60
11387;DHT22;5748;53.102;8.456;2022-10-16T15:28:12;22.40;51.70
11387;DHT22;5748;53.102;8.456;2022-10-16T15:30:40;22.40;51.80
11387;DHT22;5748;53.102;8.456;2022-10-16T15:33:12;22.30;51.80
11387;DHT22;5748;53.102;8.456;2022-10-16T15:35:41;22.30;51.80
11387;DHT22;5748;53.102;8.456;2022-10-16T15:38:11;22.20;52.00
11387;DHT22;5748;53.102;8.456;2022-10-16T15:40:39;22.20;52.10
11387;DHT22;5748;53.102;8.456;2022-10-16T15:43:07;22.10;52.00
11387;DHT22;5748;53.102;8.456;2022-10-16T15:45:34;22.10;52.00
11387;DHT22;5748;53.102;8.456;2022-10-16T15:48:02;22.00;51.90
11387;DHT22;5748;53.102;8.456;2022-10-16T15:50:30;21.90;52.00
11387;DHT22;5748;53.102;8.456;2022-10-16T15:52:57;21.90;52.20
11387;DHT22;5748;53.102;8.456;2022-10-16T15:55:26;21.80;52.20
11387;DHT22;5748;53.102;8.456;2022-10-16T15:57:53;21.70;52.20
11387;DHT22;5748;53.102;8.456;2022-10-16T16:00:20;21.70;52.20
11387;DHT22;5748;53.102;8.456;2022-10-16T16:02:50;21.60;52.30
11387;DHT22;5748;53.102;8.456;2022-10-16T16:05:19;21.50;52.40
11387;DHT22;5748;53.102;8.456;2022-10-16T16:07:47;21.40;52.40
11387;DHT22;5748;53.102;8.456;2022-10-16T16:10:14;21.40;52.40
11387;DHT22;5748;53.102;8.456;2022-10-16T16:12:46;21.30;52.40
11387;DHT22;5748;53.102;8.456;2022-10-16T16:15:17;21.20;52.50
11387;DHT22;5748;53.102;8.456;2022-10-16T16:17:45;21.10;52.40
11387;DHT22;5748;53.102;8.456;2022-10-16T16:20:12;21.00;52.40
11387;DHT22;5748;53.102;8.456;2022-10-16T16:22:40;20.90;52.40